createdAt,value
2023-04-16T00:00:59.845Z,41.55
2023-04-16T00:02:04.851Z,44.63
2023-04-16T00:03:09.783Z,49.35
2023-04-16T00:04:12.066Z,41.35
2023-04-16T00:05:16.953Z,49.17
2023-04-16T00:06:19.039Z,45.47
2023-04-16T00:07:23.743Z,37.38
2023-04-16T00:08:25.908Z,36.55
2023-04-16T00:09:30.552Z,44.53
2023-04-16T00:10:32.632Z,41.03
2023-04-16T00:11:37.316Z,45.85
2023-04-16T00:12:39.377Z,39.05
2023-04-16T00:13:44.110Z,39.47
2023-04-16T00:14:46.168Z,40.63
2023-04-16T00:15:51.230Z,35.30
2023-04-16T00:16:53.403Z,34.35
2023-04-16T00:18:05.064Z,32.15
2023-04-16T00:20:13.354Z,39.00
2023-04-16T00:21:15.716Z,33.47
2023-04-16T00:22:20.388Z,38.53
2023-04-16T00:23:22.501Z,36.60
2023-04-16T00:24:27.119Z,34.55
2023-04-16T00:25:29.196Z,36.13
2023-04-16T00:26:36.071Z,34.60
2023-04-16T00:27:38.145Z,39.28
2023-04-16T00:28:42.805Z,44.10
2023-04-16T00:29:44.888Z,31.48
2023-04-16T00:30:49.556Z,37.20
2023-04-16T00:31:51.651Z,32.65
2023-04-16T00:32:56.366Z,28.45
2023-04-16T00:34:01.112Z,28.95
2023-04-16T00:35:05.817Z,31.30
2023-04-16T00:36:08.203Z,28.65
2023-04-16T00:37:12.901Z,28.05
2023-04-16T00:38:15.414Z,29.33
2023-04-16T00:39:20.111Z,31.27
2023-04-16T00:40:22.482Z,40.70
2023-04-16T00:41:27.590Z,29.90
2023-04-16T00:42:29.646Z,28.02
2023-04-16T00:43:34.974Z,26.23
2023-04-16T00:44:37.249Z,26.88
2023-04-16T00:45:42.023Z,23.23
2023-04-16T00:46:44.779Z,24.38
2023-04-16T00:47:49.973Z,35.72
2023-04-16T00:48:54.308Z,24.75
2023-04-16T00:50:01.575Z,21.02
2023-04-16T00:51:05.740Z,42.38
2023-04-16T00:52:10.864Z,24.05
2023-04-16T00:53:13.820Z,32.92
2023-04-16T00:54:18.502Z,28.20
2023-04-16T00:55:21.536Z,29.90
2023-04-16T00:56:27.816Z,30.27
2023-04-16T00:57:31.430Z,30.25
2023-04-16T00:58:36.924Z,30.60
2023-04-16T00:59:39.011Z,31.20
2023-04-16T01:00:43.751Z,34.55
2023-04-16T01:01:45.872Z,29.55
2023-04-16T01:02:50.640Z,29.98
2023-04-16T01:03:52.902Z,28.35
2023-04-16T01:04:58.263Z,30.52
2023-04-16T01:06:03.614Z,27.13
2023-04-16T01:07:08.545Z,27.88
2023-04-16T01:08:17.119Z,30.55
2023-04-16T01:09:21.948Z,23.73
2023-04-16T01:10:24.045Z,20.85
2023-04-16T01:11:28.745Z,23.40
2023-04-16T01:12:34.343Z,19.98
2023-04-16T01:13:39.926Z,24.65
2023-04-16T01:14:42.117Z,26.95
2023-04-16T01:15:53.550Z,23.88
2023-04-16T01:16:55.625Z,36.33
2023-04-16T01:18:00.393Z,23.33
2023-04-16T01:19:02.997Z,21.42
2023-04-16T01:20:08.562Z,24.52
2023-04-16T01:21:13.259Z,22.23
2023-04-16T01:22:17.927Z,21.15
2023-04-16T01:23:20.050Z,25.25
2023-04-16T01:24:24.733Z,24.95
2023-04-16T01:25:26.824Z,22.42
2023-04-16T01:26:31.544Z,31.52
2023-04-16T01:27:33.669Z,22.50
2023-04-16T01:28:38.561Z,23.33
2023-04-16T01:29:40.687Z,26.05
2023-04-16T01:30:45.466Z,22.73
2023-04-16T01:31:47.630Z,24.95
2023-04-16T01:32:53.639Z,30.40
2023-04-16T01:33:55.801Z,25.02
2023-04-16T01:35:00.567Z,38.53
2023-04-16T01:36:02.970Z,22.17
2023-04-16T01:37:10.228Z,24.10
2023-04-16T01:38:12.271Z,26.38
2023-04-16T01:39:17.410Z,25.33
2023-04-16T01:40:19.857Z,25.67
2023-04-16T01:41:24.516Z,24.45
2023-04-16T01:42:26.603Z,21.65
2023-04-16T01:43:31.292Z,23.05
2023-04-16T01:44:33.364Z,27.58
2023-04-16T01:45:38.495Z,23.70
2023-04-16T01:46:40.892Z,26.52
2023-04-16T01:47:45.780Z,25.88
2023-04-16T01:48:48.509Z,32.10
2023-04-16T01:49:53.230Z,24.45
2023-04-16T01:50:55.389Z,21.73
2023-04-16T01:52:00.040Z,31.30
2023-04-16T01:53:05.347Z,30.58
2023-04-16T01:54:10.081Z,21.67
2023-04-16T01:55:12.993Z,27.20
2023-04-16T01:56:17.621Z,20.08
2023-04-16T01:57:19.678Z,28.40
2023-04-16T01:58:25.501Z,22.70
2023-04-16T01:59:27.800Z,23.73
2023-04-16T02:00:32.817Z,30.25
2023-04-16T02:01:35.413Z,24.75
2023-04-16T02:02:40.465Z,27.83
2023-04-16T02:03:42.739Z,23.15
2023-04-16T02:04:48.423Z,23.35
2023-04-16T02:05:50.669Z,39.10
2023-04-16T02:06:55.311Z,23.52
2023-04-16T02:07:57.356Z,25.90
2023-04-16T02:09:04.694Z,38.88
2023-04-16T02:10:10.423Z,26.70
2023-04-16T02:11:15.404Z,27.10
2023-04-16T02:12:26.959Z,27.40
2023-04-16T02:14:34.317Z,24.98
2023-04-16T02:15:39.570Z,24.90
2023-04-16T02:16:41.655Z,25.80
2023-04-16T02:17:46.861Z,26.65
2023-04-16T02:18:48.910Z,24.48
2023-04-16T02:19:53.604Z,24.17
2023-04-16T02:21:01.360Z,29.42
2023-04-16T02:22:06.348Z,23.95
2023-04-16T02:23:08.802Z,25.60
2023-04-16T02:24:34.284Z,28.50
2023-04-16T02:25:46.140Z,26.60
2023-04-16T02:26:51.109Z,25.05
2023-04-16T02:27:53.167Z,27.80
2023-04-16T02:28:57.882Z,25.95
2023-04-16T02:29:59.907Z,31.63
2023-04-16T02:31:04.616Z,30.75
2023-04-16T02:32:06.818Z,33.10
2023-04-16T02:33:13.771Z,38.58
2023-04-16T02:34:15.902Z,30.55
2023-04-16T02:35:20.633Z,34.38
2023-04-16T02:36:22.690Z,30.70
2023-04-16T02:37:27.508Z,34.38
2023-04-16T02:38:29.553Z,31.30
2023-04-16T02:39:36.828Z,40.50
2023-04-16T02:40:39.488Z,34.92
2023-04-16T02:41:44.109Z,30.58
2023-04-16T02:42:46.192Z,29.08
2023-04-16T02:43:50.849Z,44.58
2023-04-16T02:44:53.162Z,36.97
2023-04-16T02:45:59.479Z,34.15
2023-04-16T02:47:01.565Z,29.52
2023-04-16T02:48:07.419Z,31.48
2023-04-16T02:49:09.824Z,33.13
2023-04-16T02:50:15.046Z,30.58
2023-04-16T02:51:17.382Z,29.10
2023-04-16T02:52:22.002Z,32.13
2023-04-16T02:53:24.064Z,34.45
2023-04-16T02:54:28.732Z,25.65
2023-04-16T02:55:33.364Z,30.98
2023-04-16T02:56:38.319Z,32.25
2023-04-16T02:57:40.959Z,28.15
2023-04-16T02:58:45.563Z,33.60
2023-04-16T02:59:47.602Z,29.10
2023-04-16T03:00:52.197Z,32.08
2023-04-16T03:01:54.349Z,36.60
2023-04-16T03:02:59.085Z,29.08
2023-04-16T03:04:01.296Z,31.60
2023-04-16T03:05:06.697Z,26.90
2023-04-16T03:06:08.745Z,28.00
2023-04-16T03:07:14.110Z,32.72
2023-04-16T03:08:16.171Z,30.77
2023-04-16T03:09:20.834Z,29.73
2023-04-16T03:10:23.535Z,33.20
2023-04-16T03:11:30.719Z,30.45
2023-04-16T03:12:32.777Z,33.42
2023-04-16T03:13:37.416Z,29.40
2023-04-16T03:14:39.475Z,29.30
2023-04-16T03:15:44.113Z,36.85
2023-04-16T03:16:46.329Z,24.92
2023-04-16T03:17:50.988Z,26.70
2023-04-16T03:18:53.135Z,35.53
2023-04-16T03:19:57.817Z,29.60
2023-04-16T03:20:59.843Z,24.95
2023-04-16T03:22:04.436Z,26.00
2023-04-16T03:23:06.495Z,24.38
2023-04-16T03:24:11.110Z,36.38
2023-04-16T03:25:13.583Z,23.13
2023-04-16T03:26:18.241Z,27.17
2023-04-16T03:27:22.805Z,27.73
2023-04-16T03:28:27.420Z,23.77
2023-04-16T03:29:29.519Z,24.40
2023-04-16T03:30:34.171Z,29.80
2023-04-16T03:31:36.557Z,27.50
2023-04-16T03:32:41.662Z,28.83
2023-04-16T03:33:43.783Z,28.00
2023-04-16T03:34:48.415Z,32.22
2023-04-16T03:35:56.231Z,26.27
2023-04-16T03:37:00.884Z,28.60
2023-04-16T03:40:03.836Z,29.77
2023-04-16T03:41:05.872Z,26.25
2023-04-16T03:42:10.441Z,28.38
2023-04-16T03:43:15.085Z,24.23
2023-04-16T03:44:19.688Z,27.05
2023-04-16T03:45:21.746Z,22.98
2023-04-16T03:46:26.474Z,22.27
2023-04-16T03:47:28.585Z,26.63
2023-04-16T03:48:33.241Z,25.63
2023-04-16T03:49:35.362Z,23.70
2023-04-16T03:50:39.988Z,25.33
2023-04-16T03:51:42.103Z,23.08
2023-04-16T03:52:47.178Z,20.23
2023-04-16T03:53:49.157Z,24.00
2023-04-16T03:54:53.983Z,22.73
2023-04-16T03:55:56.024Z,18.67
2023-04-16T03:57:01.153Z,21.23
2023-04-16T03:58:29.226Z,24.60
2023-04-16T03:59:31.243Z,28.35
2023-04-16T04:00:36.352Z,31.98
2023-04-16T04:01:38.531Z,22.95
2023-04-16T04:02:43.330Z,23.35
2023-04-16T04:03:45.640Z,27.23
2023-04-16T04:04:50.496Z,26.67
2023-04-16T04:05:52.538Z,27.00
2023-04-16T04:06:57.115Z,31.00
2023-04-16T04:07:59.125Z,27.33
2023-04-16T04:09:04.182Z,24.85
2023-04-16T04:10:08.093Z,26.65
2023-04-16T04:11:12.783Z,24.70
2023-04-16T04:12:14.856Z,26.98
2023-04-16T04:13:19.494Z,34.50
2023-04-16T04:14:24.215Z,45.22
2023-04-16T04:15:28.876Z,34.60
2023-04-16T04:16:31.230Z,28.00
2023-04-16T04:17:35.936Z,29.02
2023-04-16T04:18:38.114Z,44.05
2023-04-16T04:19:58.117Z,27.90
2023-04-16T04:21:06.207Z,40.55
2023-04-16T04:22:10.829Z,24.67
2023-04-16T04:23:12.876Z,30.75
2023-04-16T04:24:17.504Z,40.85
2023-04-16T04:25:19.773Z,24.00
2023-04-16T04:26:24.451Z,25.27
2023-04-16T04:27:26.458Z,31.38
2023-04-16T04:28:40.225Z,26.50
2023-04-16T04:29:44.911Z,25.77
2023-04-16T04:30:49.524Z,25.25
2023-04-16T04:31:51.668Z,25.13
2023-04-16T04:32:56.384Z,26.05
2023-04-16T04:33:58.453Z,29.05
2023-04-16T04:35:05.654Z,23.92
2023-04-16T04:36:08.101Z,26.63
2023-04-16T04:37:12.707Z,26.60
2023-04-16T04:38:16.221Z,26.70
2023-04-16T04:39:21.843Z,23.20
2023-04-16T04:40:23.861Z,31.33
2023-04-16T04:41:28.787Z,27.50
2023-04-16T04:42:30.960Z,33.45
2023-04-16T04:43:35.658Z,33.33
2023-04-16T04:44:37.758Z,23.83
2023-04-16T04:45:45.034Z,27.55
2023-04-16T04:46:47.069Z,20.75
2023-04-16T04:47:51.732Z,24.77
2023-04-16T04:48:53.856Z,21.42
2023-04-16T04:49:58.502Z,27.65
2023-04-16T04:51:01.239Z,33.28
2023-04-16T04:52:06.760Z,24.70
2023-04-16T04:53:10.452Z,24.67
2023-04-16T04:54:15.073Z,20.52
2023-04-16T04:55:17.087Z,21.10
2023-04-16T04:56:21.882Z,20.20
2023-04-16T04:57:24.090Z,20.75
2023-04-16T04:58:28.681Z,22.48
2023-04-16T04:59:30.911Z,20.52
2023-04-16T05:00:36.522Z,20.13
2023-04-16T05:01:41.347Z,18.38
2023-04-16T05:02:46.537Z,19.77
2023-04-16T05:03:48.870Z,19.88
2023-04-16T05:04:53.589Z,21.55
2023-04-16T05:05:55.771Z,35.20
2023-04-16T05:07:00.415Z,28.83
2023-04-16T05:08:02.462Z,22.05
2023-04-16T05:09:11.732Z,35.40
2023-04-16T05:10:14.249Z,27.90
2023-04-16T05:11:18.925Z,17.58
2023-04-16T05:12:21.182Z,17.48
2023-04-16T05:13:25.817Z,20.00
2023-04-16T05:14:27.842Z,24.52
2023-04-16T05:15:32.515Z,21.92
2023-04-16T05:16:37.210Z,17.63
2023-04-16T05:17:44.539Z,20.10
2023-04-16T05:18:46.622Z,17.50
2023-04-16T05:19:51.683Z,17.83
2023-04-16T05:20:53.944Z,15.98
2023-04-16T05:21:58.613Z,19.30
2023-04-16T05:23:00.618Z,19.55
2023-04-16T05:24:05.194Z,21.65
2023-04-16T05:25:07.801Z,19.20
2023-04-16T05:26:12.483Z,17.27
2023-04-16T05:27:14.524Z,23.23
2023-04-16T05:28:19.129Z,20.08
2023-04-16T05:29:21.167Z,23.13
2023-04-16T05:30:26.036Z,18.55
2023-04-16T05:31:28.108Z,18.33
2023-04-16T05:32:32.785Z,21.10
2023-04-16T05:33:37.461Z,22.73
2023-04-16T05:34:42.031Z,21.05
2023-04-16T05:35:44.103Z,18.70
2023-04-16T05:36:49.449Z,22.17
2023-04-16T05:37:51.441Z,17.70
2023-04-16T05:38:56.118Z,20.73
2023-04-16T05:39:58.185Z,19.70
2023-04-16T05:41:02.777Z,22.58
2023-04-16T05:42:04.782Z,20.65
2023-04-16T05:43:09.687Z,21.90
2023-04-16T05:44:11.737Z,24.83
2023-04-16T05:45:16.420Z,22.80
2023-04-16T05:46:18.503Z,24.95
2023-04-16T05:47:23.258Z,24.90
2023-04-16T05:48:25.312Z,26.75
2023-04-16T05:49:32.496Z,24.98
2023-04-16T05:50:34.569Z,24.50
2023-04-16T05:51:39.497Z,27.10
2023-04-16T05:52:41.558Z,24.63
2023-04-16T05:53:46.244Z,26.67
2023-04-16T05:54:48.304Z,26.50
2023-04-16T05:55:53.121Z,23.98
2023-04-16T05:56:55.127Z,26.05
2023-04-16T05:57:59.744Z,30.00
2023-04-16T05:59:01.764Z,25.48
2023-04-16T06:00:07.115Z,25.67
2023-04-16T06:01:09.128Z,24.90
2023-04-16T06:02:14.126Z,26.73
2023-04-16T06:03:16.513Z,26.98
2023-04-16T06:04:21.597Z,22.45
2023-04-16T06:05:27.034Z,25.80
2023-04-16T06:06:31.670Z,25.80
2023-04-16T06:07:33.697Z,24.60
2023-04-16T06:08:38.292Z,29.13
2023-04-16T06:09:40.284Z,26.33
2023-04-16T06:10:44.932Z,29.25
2023-04-16T06:11:46.962Z,29.48
2023-04-16T06:12:51.775Z,28.60
2023-04-16T06:13:53.881Z,31.70
2023-04-16T06:14:58.518Z,25.80
2023-04-16T06:16:00.762Z,30.33
2023-04-16T06:17:05.338Z,37.05
2023-04-16T06:18:07.455Z,31.95
2023-04-16T06:19:12.175Z,33.63
2023-04-16T06:20:14.592Z,31.35
2023-04-16T06:21:21.851Z,33.00
2023-04-16T06:22:24.722Z,33.53
2023-04-16T06:23:29.564Z,35.85
2023-04-16T06:24:31.690Z,34.33
2023-04-16T06:25:36.512Z,36.42
2023-04-16T06:26:38.685Z,34.70
2023-04-16T06:27:43.281Z,35.03
2023-04-16T06:28:45.350Z,36.30
2023-04-16T06:29:49.981Z,34.53
2023-04-16T06:30:54.753Z,36.00
2023-04-16T06:31:57.035Z,33.83
2023-04-16T06:33:01.785Z,36.50
2023-04-16T06:34:03.982Z,33.85
2023-04-16T06:35:09.754Z,33.00
2023-04-16T06:36:12.575Z,35.42
2023-04-16T06:37:19.757Z,32.25
2023-04-16T06:38:24.416Z,36.25
2023-04-16T06:39:26.673Z,34.47
2023-04-16T06:40:31.391Z,34.10
2023-04-16T06:41:33.432Z,35.35
2023-04-16T06:42:38.030Z,35.75
2023-04-16T06:43:40.208Z,38.60
2023-04-16T06:44:45.146Z,38.50
2023-04-16T06:45:47.249Z,42.22
2023-04-16T06:46:51.865Z,39.15
2023-04-16T06:47:54.027Z,34.85
2023-04-16T06:48:58.781Z,35.17
2023-04-16T06:50:01.047Z,39.17
2023-04-16T06:51:05.892Z,36.28
2023-04-16T06:52:08.049Z,34.28
2023-04-16T06:53:15.338Z,37.58
2023-04-16T06:54:17.427Z,39.35
2023-04-16T06:55:22.329Z,37.35
2023-04-16T06:56:24.414Z,34.67
2023-04-16T06:57:29.046Z,47.50
2023-04-16T06:58:31.152Z,37.47
2023-04-16T06:59:35.832Z,37.38
2023-04-16T07:00:37.907Z,36.95
2023-04-16T07:01:42.732Z,40.65
2023-04-16T07:02:44.933Z,34.53
2023-04-16T07:03:49.878Z,45.58
2023-04-16T07:04:52.546Z,36.13
2023-04-16T07:05:57.183Z,34.72
2023-04-16T07:06:59.256Z,40.15
2023-04-16T07:08:03.907Z,34.55
2023-04-16T07:09:08.851Z,35.75
2023-04-16T07:10:14.046Z,47.05
2023-04-16T07:11:19.240Z,57.47
2023-04-16T07:12:22.631Z,34.03
2023-04-16T07:13:27.836Z,33.03
2023-04-16T07:14:30.107Z,36.75
2023-04-16T07:15:34.794Z,39.53
2023-04-16T07:16:38.001Z,40.78
2023-04-16T07:17:42.816Z,35.53
2023-04-16T07:18:47.542Z,42.58
2023-04-16T07:19:49.830Z,41.17
2023-04-16T07:20:54.497Z,39.30
2023-04-16T07:21:56.580Z,37.97
2023-04-16T07:23:02.180Z,40.55
2023-04-16T07:24:04.572Z,37.83
2023-04-16T07:25:12.822Z,39.72
2023-04-16T07:26:14.902Z,45.25
2023-04-16T07:27:19.744Z,38.42
2023-04-16T07:28:21.936Z,36.78
2023-04-16T07:29:26.615Z,41.95
2023-04-16T07:30:34.250Z,42.70
2023-04-16T07:31:39.049Z,39.33
2023-04-16T07:32:41.163Z,44.80
2023-04-16T07:33:45.895Z,43.88
2023-04-16T07:34:47.965Z,43.53
2023-04-16T07:35:52.745Z,44.80
2023-04-16T07:36:54.783Z,46.90
2023-04-16T07:37:59.563Z,41.38
2023-04-16T07:39:01.673Z,46.50
2023-04-16T07:40:07.057Z,40.75
2023-04-16T07:41:11.773Z,50.40
2023-04-16T07:42:16.820Z,51.63
2023-04-16T07:43:21.500Z,46.00
2023-04-16T07:44:23.554Z,53.53
2023-04-16T07:45:28.229Z,52.50
2023-04-16T07:46:39.391Z,51.00
2023-04-16T07:47:50.716Z,62.03
2023-04-16T07:48:52.829Z,55.78
2023-04-16T07:49:57.733Z,60.72
2023-04-16T07:50:59.807Z,55.97
2023-04-16T07:52:05.116Z,56.05
2023-04-16T07:53:07.908Z,63.70
2023-04-16T07:54:13.330Z,68.90
2023-04-16T07:55:15.549Z,63.10
2023-04-16T07:56:22.781Z,67.97
2023-04-16T07:57:24.869Z,79.72
2023-04-16T07:58:29.595Z,142.82
2023-04-16T07:59:34.259Z,124.20
2023-04-16T08:00:36.660Z,140.77
2023-04-16T08:01:41.614Z,236.07
2023-04-16T08:02:44.074Z,94.47
2023-04-16T08:03:49.124Z,55.80
2023-04-16T08:04:51.542Z,107.38
2023-04-16T08:05:56.228Z,75.60
2023-04-16T08:06:58.412Z,57.22
2023-04-16T08:08:03.081Z,61.83
2023-04-16T08:09:05.175Z,59.63
2023-04-16T08:10:11.512Z,136.70
2023-04-16T08:11:13.662Z,109.70
2023-04-16T08:12:21.168Z,64.50
2023-04-16T08:13:23.560Z,61.10
2023-04-16T08:14:28.260Z,47.17
2023-04-16T08:15:31.042Z,66.70
2023-04-16T08:16:36.035Z,50.55
2023-04-16T08:17:38.800Z,48.83
2023-04-16T08:18:43.571Z,52.70
2023-04-16T08:19:48.404Z,47.05
2023-04-16T08:20:50.488Z,49.42
2023-04-16T08:21:55.338Z,56.17
2023-04-16T08:22:57.436Z,45.58
2023-04-16T08:24:02.250Z,44.97
2023-04-16T08:25:05.208Z,39.28
2023-04-16T08:26:09.842Z,45.92
2023-04-16T08:27:19.642Z,41.58
2023-04-16T08:28:24.789Z,43.33
2023-04-16T08:29:29.503Z,48.65
2023-04-16T08:30:31.769Z,49.85
2023-04-16T08:31:36.642Z,44.38
2023-04-16T08:32:38.955Z,43.35
2023-04-16T08:33:43.699Z,46.28
2023-04-16T08:34:48.428Z,49.28
2023-04-16T08:35:50.745Z,43.38
2023-04-16T08:36:55.387Z,42.50
2023-04-16T08:37:58.062Z,38.33
2023-04-16T08:39:02.706Z,38.92
2023-04-16T08:40:06.324Z,41.60
2023-04-16T08:41:15.212Z,36.38
2023-04-16T08:42:24.209Z,41.08
2023-04-16T08:43:41.919Z,39.85
2023-04-16T08:44:51.685Z,43.72
2023-04-16T08:45:57.965Z,41.13
2023-04-16T08:47:02.438Z,43.17
2023-04-16T08:48:08.559Z,35.78
2023-04-16T08:49:18.210Z,36.30
2023-04-16T08:50:41.061Z,37.00
2023-04-16T08:51:45.889Z,45.60
2023-04-16T08:52:54.832Z,46.58
2023-04-16T08:54:03.423Z,36.88
2023-04-16T08:55:15.006Z,37.85
2023-04-16T08:57:26.728Z,37.17
2023-04-16T08:58:32.444Z,43.17
2023-04-16T08:59:41.239Z,43.05
2023-04-16T09:00:44.259Z,46.97
2023-04-16T09:01:49.363Z,41.55
2023-04-16T09:02:52.281Z,42.25
2023-04-16T09:03:57.476Z,38.13
2023-04-16T09:05:00.649Z,36.13
2023-04-16T09:06:07.040Z,39.47
2023-04-16T09:07:09.694Z,37.67
2023-04-16T09:08:14.412Z,35.53
2023-04-16T09:09:17.978Z,38.35
2023-04-16T09:10:23.404Z,36.63
2023-04-16T09:11:26.769Z,34.78
2023-04-16T09:12:32.896Z,33.00
2023-04-16T09:13:37.609Z,33.40
2023-04-16T09:14:43.277Z,35.70
2023-04-16T09:15:48.277Z,39.75
2023-04-16T09:16:53.383Z,39.42
2023-04-16T09:17:59.290Z,35.03
2023-04-16T09:19:04.060Z,37.38
2023-04-16T09:20:12.664Z,32.75
2023-04-16T09:21:18.067Z,32.95
2023-04-16T09:22:22.737Z,30.55
2023-04-16T09:23:27.985Z,31.20
2023-04-16T09:24:30.657Z,32.28
2023-04-16T09:25:37.482Z,31.10
2023-04-16T09:26:41.598Z,35.08
2023-04-16T09:27:46.985Z,28.23
2023-04-16T09:28:51.053Z,33.40
2023-04-16T09:29:58.302Z,26.73
2023-04-16T09:31:08.728Z,26.33
2023-04-16T09:32:14.746Z,26.73
2023-04-16T09:33:22.925Z,30.08
2023-04-16T09:34:27.956Z,26.10
2023-04-16T09:35:48.405Z,27.90
2023-04-16T09:36:50.582Z,25.63
2023-04-16T09:37:58.961Z,23.63
2023-04-16T09:39:04.489Z,21.23
2023-04-16T09:40:08.298Z,22.48
2023-04-16T09:41:12.913Z,23.10
2023-04-16T09:42:14.964Z,24.67
2023-04-16T09:43:20.932Z,25.10
2023-04-16T09:44:36.474Z,19.83
2023-04-16T09:45:54.448Z,27.10
2023-04-16T09:47:09.376Z,19.50
2023-04-16T09:48:12.490Z,21.13
2023-04-16T09:49:19.200Z,16.85
2023-04-16T09:50:21.471Z,20.25
2023-04-16T09:51:27.188Z,16.20
2023-04-16T09:52:29.283Z,17.90
2023-04-16T09:53:35.235Z,18.92
2023-04-16T09:54:37.315Z,22.63
2023-04-16T09:55:42.004Z,20.27
2023-04-16T09:56:48.025Z,20.15
2023-04-16T09:57:59.168Z,19.73
2023-04-16T09:59:03.879Z,20.88
2023-04-16T10:00:09.272Z,18.50
2023-04-16T10:01:17.495Z,21.20
2023-04-16T10:02:20.820Z,160.65
2023-04-16T10:03:47.759Z,77.05
2023-04-16T10:04:54.167Z,75.10
2023-04-16T10:06:03.626Z,88.05
2023-04-16T10:07:07.424Z,53.35
2023-04-16T10:08:17.214Z,91.85
2023-04-16T10:09:20.793Z,52.28
2023-04-16T10:10:28.695Z,75.57
2023-04-16T10:11:31.948Z,58.45
2023-04-16T10:12:37.687Z,83.43
2023-04-16T10:13:41.954Z,66.38
2023-04-16T10:14:50.301Z,161.05
2023-04-16T10:15:59.562Z,92.07
2023-04-16T10:17:07.059Z,206.90
2023-04-16T10:18:15.459Z,146.23
2023-04-16T10:19:19.461Z,71.35
2023-04-16T10:20:27.585Z,91.32
2023-04-16T10:21:35.394Z,59.55
2023-04-16T10:22:42.199Z,54.30
2023-04-16T10:24:54.343Z,120.03
2023-04-16T10:25:58.517Z,68.80
2023-04-16T10:27:07.029Z,80.43
2023-04-16T10:28:18.062Z,112.90
2023-04-16T10:29:32.209Z,104.63
2023-04-16T10:30:41.679Z,101.55
2023-04-16T10:31:52.069Z,99.75
2023-04-16T10:33:04.274Z,95.85
2023-04-16T10:34:15.500Z,109.90
2023-04-16T10:35:21.310Z,100.45
2023-04-16T10:36:31.137Z,58.97
2023-04-16T10:37:40.298Z,100.28
2023-04-16T10:38:56.688Z,95.47
2023-04-16T10:40:08.132Z,90.35
2023-04-16T10:41:16.868Z,100.35
2023-04-16T10:42:27.579Z,115.47
2023-04-16T10:43:37.406Z,93.68
2023-04-16T10:44:47.278Z,94.60
2023-04-16T10:45:57.233Z,76.80
2023-04-16T10:47:17.332Z,92.00
2023-04-16T10:48:35.606Z,132.45
2023-04-16T10:49:54.759Z,80.55
2023-04-16T10:51:03.476Z,105.57
2023-04-16T10:52:18.444Z,90.80
2023-04-16T10:53:29.333Z,94.05
2023-04-16T10:54:41.626Z,98.68
2023-04-16T10:55:58.849Z,109.35
2023-04-16T10:57:10.633Z,137.05
2023-04-16T10:58:32.508Z,97.07
2023-04-16T10:59:43.839Z,94.57
2023-04-16T11:00:51.812Z,93.07
2023-04-16T11:02:02.203Z,112.00
2023-04-16T11:03:07.284Z,173.00
2023-04-16T11:04:39.129Z,105.18
2023-04-16T11:05:51.279Z,55.88
2023-04-16T11:07:12.724Z,133.90
2023-04-16T11:08:23.384Z,107.38
2023-04-16T11:09:49.915Z,116.38
2023-04-16T11:10:59.107Z,108.68
2023-04-16T11:12:10.942Z,96.85
2023-04-16T11:13:24.509Z,80.57
2023-04-16T11:14:31.067Z,77.93
2023-04-16T11:15:37.184Z,105.25
2023-04-16T11:16:43.810Z,88.70
2023-04-16T11:17:58.800Z,86.18
2023-04-16T11:19:05.623Z,86.57
2023-04-16T11:20:23.828Z,64.53
2023-04-16T11:21:30.529Z,50.75
2023-04-16T11:22:42.657Z,102.68
2023-04-16T11:23:52.888Z,64.72
2023-04-16T11:25:05.476Z,86.72
2023-04-16T11:26:24.580Z,95.18
2023-04-16T11:27:42.346Z,63.45
2023-04-16T11:28:47.554Z,80.40
2023-04-16T11:30:05.061Z,102.47
2023-04-16T11:31:13.594Z,54.50
2023-04-16T11:32:30.012Z,96.38
2023-04-16T11:34:03.296Z,122.40
2023-04-16T11:35:25.870Z,106.13
2023-04-16T11:36:28.122Z,90.47
2023-04-16T11:37:36.947Z,56.25
2023-04-16T11:38:41.230Z,70.35
2023-04-16T11:39:53.933Z,85.20
2023-04-16T11:40:56.108Z,99.55
2023-04-16T11:42:02.805Z,75.30
2023-04-16T11:43:14.001Z,89.82
2023-04-16T11:44:23.242Z,82.53
2023-04-16T11:45:28.209Z,90.18
2023-04-16T11:46:40.075Z,78.30
2023-04-16T11:47:52.054Z,71.32
2023-04-16T11:48:55.661Z,106.25
2023-04-16T11:50:00.581Z,95.35
2023-04-16T11:51:05.826Z,112.20
2023-04-16T11:52:10.529Z,98.15
2023-04-16T11:53:12.618Z,95.57
2023-04-16T11:54:23.961Z,113.88
2023-04-16T11:55:26.244Z,61.38
2023-04-16T11:56:31.677Z,54.67
2023-04-16T11:57:33.799Z,112.60
2023-04-16T11:58:38.754Z,184.05
2023-04-16T12:00:01.762Z,84.65
2023-04-16T12:01:05.525Z,66.47
2023-04-16T12:02:10.241Z,86.45
2023-04-16T12:03:12.535Z,75.13
2023-04-16T12:04:18.839Z,81.70
2023-04-16T12:05:31.389Z,85.47
2023-04-16T12:06:36.336Z,166.35
2023-04-16T12:07:48.154Z,52.78
2023-04-16T12:08:52.093Z,84.53
2023-04-16T12:10:08.662Z,105.72
2023-04-16T12:11:11.448Z,117.07
2023-04-16T12:12:31.658Z,179.90
2023-04-16T12:13:40.336Z,196.30
2023-04-16T12:14:51.190Z,87.65
2023-04-16T12:15:57.252Z,84.20
2023-04-16T12:17:19.888Z,89.75
2023-04-16T12:18:27.154Z,81.43
2023-04-16T12:19:29.550Z,88.00
2023-04-16T12:20:43.097Z,67.40
2023-04-16T12:21:52.178Z,69.68
2023-04-16T12:22:59.709Z,90.50
2023-04-16T12:24:04.569Z,84.97
2023-04-16T12:25:11.361Z,61.55
2023-04-16T12:26:14.642Z,71.53
2023-04-16T12:27:19.328Z,73.55
2023-04-16T12:28:30.026Z,70.93
2023-04-16T12:29:34.862Z,66.60
2023-04-16T12:30:53.274Z,78.22
2023-04-16T12:31:58.061Z,76.35
2023-04-16T12:33:16.255Z,72.40
2023-04-16T12:34:21.517Z,70.03
2023-04-16T12:35:35.337Z,106.43
2023-04-16T12:36:47.629Z,79.50
2023-04-16T12:37:52.825Z,77.20
2023-04-16T12:38:57.419Z,87.32
2023-04-16T12:40:02.059Z,74.78
2023-04-16T12:41:06.717Z,82.10
2023-04-16T12:42:11.364Z,62.72
2023-04-16T12:43:16.434Z,61.10
2023-04-16T12:44:18.518Z,73.47
2023-04-16T12:45:23.785Z,89.93
2023-04-16T12:46:25.938Z,69.85
2023-04-16T12:47:30.790Z,75.22
2023-04-16T12:48:35.464Z,68.50
2023-04-16T12:49:37.652Z,75.97
2023-04-16T12:50:44.539Z,59.72
2023-04-16T12:51:52.399Z,64.20
2023-04-16T12:52:57.904Z,81.80
2023-04-16T12:54:02.921Z,82.03
2023-04-16T12:55:08.349Z,89.43
2023-04-16T12:56:10.532Z,78.47
2023-04-16T12:57:16.312Z,77.10
2023-04-16T12:58:19.233Z,89.00
2023-04-16T12:59:23.902Z,72.32
2023-04-16T13:00:26.115Z,50.45
2023-04-16T13:01:31.489Z,67.72
2023-04-16T13:02:34.331Z,72.03
2023-04-16T13:03:39.188Z,75.68
2023-04-16T13:04:42.010Z,66.28
2023-04-16T13:05:47.075Z,68.50
2023-04-16T13:06:51.709Z,78.93
2023-04-16T13:07:57.493Z,75.13
2023-04-16T13:09:02.257Z,81.78
2023-04-16T13:10:05.714Z,80.88
2023-04-16T13:11:10.768Z,65.00
2023-04-16T13:12:15.813Z,74.38
2023-04-16T13:13:17.922Z,69.38
2023-04-16T13:14:23.232Z,65.95
2023-04-16T13:15:25.245Z,79.70
2023-04-16T13:16:29.851Z,89.93
2023-04-16T13:17:32.032Z,82.90
2023-04-16T13:18:37.075Z,53.30
2023-04-16T13:19:39.312Z,69.95
2023-04-16T13:20:44.283Z,74.28
2023-04-16T13:21:46.603Z,80.88
2023-04-16T13:22:51.304Z,78.55
2023-04-16T13:23:55.982Z,92.38
2023-04-16T13:25:01.088Z,80.25
2023-04-16T13:26:06.570Z,82.22
2023-04-16T13:27:08.657Z,69.93
2023-04-16T13:28:13.256Z,68.90
2023-04-16T13:29:15.601Z,62.00
2023-04-16T13:30:20.282Z,74.20
2023-04-16T13:31:22.729Z,70.53
2023-04-16T13:32:28.145Z,88.82
2023-04-16T13:33:30.331Z,61.08
2023-04-16T13:34:36.032Z,74.68
2023-04-16T13:35:40.274Z,76.47
2023-04-16T13:36:46.145Z,39.42
2023-04-16T13:37:48.442Z,60.95
2023-04-16T13:38:53.571Z,77.63
2023-04-16T13:40:00.919Z,74.00
2023-04-16T13:41:06.263Z,61.45
2023-04-16T13:42:08.354Z,48.70
2023-04-16T13:43:13.955Z,58.35
2023-04-16T13:44:18.902Z,55.88
2023-04-16T13:45:21.073Z,67.75
2023-04-16T13:46:26.735Z,57.17
2023-04-16T13:47:31.758Z,49.88
2023-04-16T13:48:36.462Z,61.80
2023-04-16T13:49:38.627Z,40.15
2023-04-16T13:50:43.318Z,54.83
2023-04-16T13:51:53.092Z,61.65
2023-04-16T13:53:04.925Z,84.25
2023-04-16T13:54:17.013Z,39.10
2023-04-16T13:55:31.993Z,83.60
2023-04-16T13:56:37.087Z,80.43
2023-04-16T13:57:44.209Z,63.50
2023-04-16T13:58:49.988Z,65.25
2023-04-16T14:00:01.445Z,69.55
2023-04-16T14:01:13.852Z,67.50
2023-04-16T14:02:19.013Z,61.38
2023-04-16T14:03:26.205Z,62.28
2023-04-16T14:04:33.749Z,90.72
2023-04-16T14:05:39.103Z,61.88
2023-04-16T14:06:41.328Z,59.13
2023-04-16T14:07:50.564Z,54.97
2023-04-16T14:08:53.181Z,62.28